Home > Products > Valid Products > TAF

000
FTUS44 KEPZ 231700
TAFELP
TAF
KELP 231739Z 2318/2418 24006KT P6SM FEW050 FEW250
     FM240400 06005KT P6SM FEW250
     FM241700 19007KT P6SM FEW050 FEW250=



000
FTUS44 KEPZ 231700
TAFDMN
TAF
KDMN 231739Z 2318/2418 21006KT P6SM FEW050 FEW250
     FM240400 29006KT P6SM FEW250
     FM241700 16007KT P6SM FEW050 FEW250=



000
FTUS44 KEPZ 231700
TAFELP
TAF
KELP 231739Z 2318/2418 24006KT P6SM FEW050 FEW250
     FM240400 06005KT P6SM FEW250
     FM241700 19007KT P6SM FEW050 FEW250=



000
FTUS44 KEPZ 231700
TAFTCS
TAF
KTCS 231739Z 2318/2418 16006KT P6SM FEW050 FEW250
     FM240400 30006KT P6SM FEW250
     FM241700 15007KT P6SM FEW050 FEW250=



000
FTUS44 KEPZ 231700
TAFTCS
TAF
KTCS 231739Z 2318/2418 16006KT P6SM FEW050 FEW250
     FM240400 30006KT P6SM FEW250
     FM241700 15007KT P6SM FEW050 FEW250=



000
FTUS44 KEPZ 231700
TAFDMN
TAF
KDMN 231739Z 2318/2418 21006KT P6SM FEW050 FEW250
     FM240400 29006KT P6SM FEW250
     FM241700 16007KT P6SM FEW050 FEW250=



000
FTUS44 KEPZ 231100
TAFDMN
TAF
KDMN 231120Z 2312/2412 VRB04KT P6SM SKC
     FM232000 22007KT P6SM FEW250
     FM240400 27005KT P6SM SKC=



000
FTUS44 KEPZ 231100
TAFELP
TAF
KELP 231120Z 2312/2412 02005KT P6SM SKC
     FM231700 VRB05KT P6SM FEW050 FEW250
     FM240400 06005KT P6SM SKC=



000
FTUS44 KEPZ 231100
TAFTCS
TAF
KTCS 231120Z 2312/2412 VRB05KT P6SM SKC
     FM231900 17005KT P6SM FEW250
     FM240400 32006KT P6SM SKC=



000
FTUS44 KEPZ 230500
TAFTCS
TAF
KTCS 230540Z 2306/2406 31006KT P6SM SKC
     FM231500 00000KT P6SM SKC
     FM231900 VRB05KT P6SM FEW250=



000
FTUS44 KEPZ 230500
TAFDMN
TAF
KDMN 230540Z 2306/2406 VRB04KT P6SM SKC
     FM232000 22007KT P6SM FEW250=



000
FTUS44 KEPZ 230500
TAFELP
TAF
KELP 230540Z 2306/2406 02005KT P6SM SKC
     FM231700 VRB05KT P6SM FEW250=



000
FTUS44 KEPZ 222300
TAFDMN
TAF
KDMN 222339Z 2300/2324 20006KT P6SM FEW060 FEW250
     FM230300 29007KT P6SM SKC
     FM232000 20007KT P6SM FEW060 FEW250=



000
FTUS44 KEPZ 222300
TAFELP
TAF
KELP 222339Z 2300/2324 VRB04KT P6SM FEW060 SCT250
     FM230300 04005KT P6SM FEW250
     FM231700 VRB05KT P6SM FEW250=



000
FTUS44 KEPZ 222300
TAFTCS
TAF
KTCS 222339Z 2300/2324 19006KT P6SM FEW080 SCT250
     FM230300 VRB05KT P6SM SKC
     FM230600 31006KT P6SM SKC
     FM231500 00000KT P6SM SKC=



000
FTUS44 KEPZ 221700 CCA
TAFELP
TAF COR
KELP 221757Z 2218/2318 14006KT P6SM SCT020 BKN035 BKN120
     FM221900 17006KT P6SM BKN040 BKN120
     FM222100 26007KT P6SM SCT040 SCT120
     FM230300 05007KT P6SM FEW050 FEW120
     FM231700 19007KT P6SM FEW060 FEW250=



000
FTUS44 KEPZ 221700 CCA
TAFELP
TAF COR
KELP 221757Z 2218/2318 14006KT P6SM SCT020 BKN035 BKN120
     FM221900 17006KT P6SM BKN040 BKN120
     FM222100 26007KT P6SM SCT040 SCT120
     FM230300 05007KT P6SM FEW050 FEW120
     FM231700 19007KT P6SM FEW060 FEW250=



000
FTUS44 KEPZ 221700 RRA
TAFTCS
TAF
KTCS 221754Z 2218/2318 17006KT P6SM SCT030 SCT120
     FM222100 19007KT P6SM SCT040 SCT120
     FM230300 25007KT P6SM FEW050
     FM230600 31006KT P6SM FEW050
     FM231700 15007KT P6SM FEW060 FEW250=



000
FTUS44 KEPZ 221700 RRA
TAFELP
TAF
KELP 221754Z 2218/2318 14006KT P6SM BKN025 BKN120
     FM221900 17006KT P6SM BKN035 BKN120
     FM222100 26007KT P6SM SCT040 SCT120
     FM230300 05007KT P6SM FEW050 FEW120
     FM231700 19007KT P6SM FEW060 FEW250=



000
FTUS44 KEPZ 221700 RRA
TAFDMN
TAF
KDMN 221754Z 2218/2318 VRB05KT P6SM FEW030
     FM222100 21007KT P6SM SCT040
     FM230300 29007KT P6SM FEW050
     FM231700 19007KT P6SM FEW060 FEW250=



000
FTUS44 KEPZ 221700 RRA
TAFDMN
TAF
KDMN 221754Z 2218/2318 VRB05KT P6SM FEW030
     FM222100 21007KT P6SM SCT040
     FM230300 29007KT P6SM FEW050
     FM231700 19007KT P6SM FEW060 FEW250=



000
FTUS44 KEPZ 221700 RRA
TAFELP
TAF
KELP 221754Z 2218/2318 14006KT P6SM BKN025 BKN120
     FM221900 17006KT P6SM BKN035 BKN120
     FM222100 26007KT P6SM SCT040 SCT120
     FM230300 05007KT P6SM FEW050 FEW120
     FM231700 19007KT P6SM FEW060 FEW250=



000
FTUS44 KEPZ 221700 RRA
TAFTCS
TAF
KTCS 221754Z 2218/2318 17006KT P6SM SCT030 SCT120
     FM222100 19007KT P6SM SCT040 SCT120
     FM230300 25007KT P6SM FEW050
     FM230600 31006KT P6SM FEW050
     FM231700 15007KT P6SM FEW060 FEW250=



000
FTUS44 KEPZ 221600 AAA
TAFELP
TAF AMD
KELP 221616Z 2216/2312 03006KT P6SM BKN025 BKN120 BKN250
     FM221700 VRB04KT P6SM FEW020 SCT050 SCT250
     FM230300 05005KT P6SM FEW120=



000
FTUS44 KEPZ 221100
TAFELP
TAF
KELP 221140Z 2212/2312 03006KT P6SM BKN020 BKN120 BKN250
     FM221500 VRB04KT P6SM FEW020 SCT050 SCT250
     FM230300 05005KT P6SM FEW120=



000
FTUS44 KEPZ 221100
TAFDMN
TAF
KDMN 221140Z 2212/2312 05006KT P6SM FEW060 SCT100 BKN250
     FM221400 VRB04KT P6SM FEW100 FEW250
     FM222000 14006KT P6SM FEW070 FEW250=



000
FTUS44 KEPZ 221100
TAFTCS
TAF
KTCS 221140Z 2212/2312 30005KT P6SM SCT120 BKN250
     FM221600 VRB04KT P6SM FEW040 SCT250
     FM222100 18005KT P6SM FEW070 FEW250
     FM230500 31005KT P6SM SKC=



000
FTUS44 KEPZ 220500
TAFDMN
TAF
KDMN 220520Z 2206/2306 05006KT P6SM FEW060 SCT100 BKN250
     FM221400 VRB04KT P6SM FEW100 FEW250
     FM222000 14006KT P6SM FEW070 FEW250=



000
FTUS44 KEPZ 220500
TAFTCS
TAF
KTCS 220520Z 2206/2306 30005KT P6SM SCT120 BKN250
     FM221600 VRB04KT P6SM FEW040 SCT250
     FM222100 18005KT P6SM FEW070 FEW250
     FM230500 31005KT P6SM SKC=



000
FTUS44 KEPZ 220500
TAFELP
TAF
KELP 220520Z 2206/2306 05005KT P6SM FEW060 SCT120
     FM220900 03006KT P6SM FEW015 SCT120 BKN250
     FM221600 VRB04KT P6SM FEW060 FEW250
     FM230300 05005KT P6SM FEW120=



000
FTUS44 KEPZ 220500
TAFDMN
TAF
KDMN 220520Z 2206/2306 05006KT P6SM FEW060 SCT100 BKN250
     FM221400 VRB04KT P6SM FEW100 FEW250
     FM222000 14006KT P6SM FEW070 FEW250=



000
FTUS44 KEPZ 220500
TAFTCS
TAF
KTCS 220520Z 2206/2306 30005KT P6SM SCT120 BKN250
     FM221600 VRB04KT P6SM FEW040 SCT250
     FM222100 18005KT P6SM FEW070 FEW250
     FM230500 31005KT P6SM SKC=



000
FTUS44 KEPZ 220500
TAFELP
TAF
KELP 220520Z 2206/2306 05005KT P6SM FEW060 SCT120
     FM220900 03006KT P6SM FEW015 SCT120 BKN250
     FM221600 VRB04KT P6SM FEW060 FEW250
     FM230300 05005KT P6SM FEW120=



000
FTUS44 KEPZ 212300
TAFTCS
TAF
KTCS 212331Z 2200/2224 VRB06KT P6SM FEW050 SCT080
     FM220300 30008KT P6SM SCT090
     FM221600 05006KT P6SM FEW040 SCT100
     FM222100 18005KT P6SM FEW070 FEW250=



000
FTUS44 KEPZ 212300
TAFDMN
TAF
KDMN 212331Z 2200/2224 08007KT P6SM FEW050
     FM220300 04005KT P6SM FEW050 FEW100
     FM222000 15006KT P6SM FEW070 FEW250=



000
FTUS44 KEPZ 212300
TAFELP
TAF
KELP 212331Z 2200/2224 10008KT P6SM VCSH SCT050 BKN080
     FM220400 04008KT P6SM FEW050 SCT100
     FM220900 03006KT P6SM FEW015 BKN040
     FM221800 VRB04KT P6SM FEW060 SCT250=



000
FTUS44 KEPZ 211700
TAFDMN
TAF
KDMN 211722Z 2118/2218 10008KT P6SM BKN050 BKN100
     FM212100 10008KT P6SM VCSH BKN040 BKN100
     FM220300 07005KT P6SM SCT040 SCT200=



000
FTUS44 KEPZ 211700
TAFTCS
TAF
KTCS 211722Z 2118/2218 06007KT P6SM SCT040 BKN060
     FM212000 14008KT P6SM VCTS BKN040CB BKN080
     FM220300 30008KT P6SM BKN040 BKN100
     FM221600 05006KT P6SM SCT040 SCT100=



000
FTUS44 KEPZ 211700
TAFELP
TAF
KELP 211722Z 2118/2218 09009KT P6SM FEW020 SCT050 BKN150
     FM212100 11008KT P6SM VCTS BKN040CB BKN060
     FM220300 04008KT P6SM SCT050 BKN100
     FM220900 03006KT P6SM FEW015 BKN040=



000
FTUS44 KEPZ 211300 AAA
TAFDMN
TAF AMD
KDMN 211335Z 2114/2212 11008KT P6SM SCT030 BKN120
     FM211900 13010KT P6SM VCTS SCT040CB BKN100
     FM220300 10008KT P6SM SCT040 BKN100=



000
FTUS44 KEPZ 211100
TAFELP
TAF
KELP 211120Z 2112/2212 06009KT P6SM SCT050 BKN120
     FM211900 11008KT P6SM VCTS SCT040CB BKN100
     FM220400 06008KT P6SM SCT050 BKN100=



000
FTUS44 KEPZ 211100
TAFTCS
TAF
KTCS 211120Z 2112/2212 30007KT P6SM BKN050
     FM211800 16010KT P6SM VCTS SCT040CB BKN100
     FM220300 28008KT P6SM SCT040 BKN100=



000
FTUS44 KEPZ 211100
TAFDMN
TAF
KDMN 211120Z 2112/2212 11008KT P6SM BKN030 BKN120
     FM211500 11008KT P6SM SCT030 BKN120
     FM211900 13010KT P6SM VCTS SCT040CB BKN100
     FM220300 10008KT P6SM SCT040 BKN100=



000
FTUS44 KEPZ 211100
TAFTCS
TAF
KTCS 211120Z 2112/2212 30007KT P6SM BKN050
     FM211800 16010KT P6SM VCTS SCT040CB BKN100
     FM220300 28008KT P6SM SCT040 BKN100=



000
FTUS44 KEPZ 211100
TAFELP
TAF
KELP 211120Z 2112/2212 06009KT P6SM SCT050 BKN120
     FM211900 11008KT P6SM VCTS SCT040CB BKN100
     FM220400 06008KT P6SM SCT050 BKN100=



000
FTUS44 KEPZ 211100
TAFDMN
TAF
KDMN 211120Z 2112/2212 11008KT P6SM BKN030 BKN120
     FM211500 11008KT P6SM SCT030 BKN120
     FM211900 13010KT P6SM VCTS SCT040CB BKN100
     FM220300 10008KT P6SM SCT040 BKN100=



000
FTUS44 KEPZ 210500
TAFDMN
TAF
KDMN 210532Z 2106/2206 05008KT P6SM VCSH SCT040 BKN080
     FM211200 11008KT P6SM SCT050 BKN120
     FM211800 13010KT P6SM VCTS SCT040CB BKN100=



000
FTUS44 KEPZ 210500
TAFELP
TAF
KELP 210532Z 2106/2206 16008KT P6SM VCSH SCT020 BKN040 BKN100
     FM211200 07009KT P6SM SCT050 BKN120
     FM211900 11008KT P6SM VCTS SCT040CB BKN100=



000
FTUS44 KEPZ 210500
TAFTCS
TAF
KTCS 210532Z 2106/2206 33004KT P6SM VCSH SCT035 BKN050
     FM211200 30007KT P6SM BKN050
     FM211800 16010KT P6SM VCTS SCT040CB BKN100
     FM220300 28008KT P6SM SCT040 BKN100=



000
FTUS44 KEPZ 210100 AAA
TAFDMN
TAF AMD
KDMN 210153Z 2102/2124 11010KT P6SM VCTS SCT040CB BKN100
      TEMPO 2102/2104 3SM TSRA BKN040CB
     FM210400 09008KT P6SM VCSH SCT040 BKN080
     FM211200 11008KT P6SM SCT050 BKN120
     FM211800 13010KT P6SM VCTS SCT040CB BKN100=



000
FTUS44 KEPZ 210100 AAA
TAFDMN
TAF AMD
KDMN 210153Z 2102/2124 11010KT P6SM VCTS SCT040CB BKN100
      TEMPO 2102/2104 3SM TSRA BKN040CB
     FM210400 09008KT P6SM VCSH SCT040 BKN080
     FM211200 11008KT P6SM SCT050 BKN120
     FM211800 13010KT P6SM VCTS SCT040CB BKN100=



000
FTUS44 KEPZ 202300
TAFTCS
TAF
KTCS 202338Z 2100/2124 18010KT P6SM VCTS SCT040CB BKN100
      TEMPO 2100/2102 3SM TSRA BKN030CB
     FM210300 31006KT P6SM VCSH BKN050
     FM211200 32007KT P6SM BKN050
     FM211800 16010KT P6SM VCTS SCT040CB BKN100=



000
FTUS44 KEPZ 202300
TAFDMN
TAF
KDMN 202338Z 2100/2124 11010KT P6SM VCTS SCT040CB BKN100
      TEMPO 2100/2102 3SM TSRA BKN040CB
     FM210300 09008KT P6SM SCT040 BKN080
     FM211200 11008KT P6SM SCT050 BKN120
     FM211800 13010KT P6SM VCTS SCT040CB BKN100=



000
FTUS44 KEPZ 202300
TAFELP
TAF
KELP 202338Z 2100/2124 13009KT P6SM VCTS SCT040CB BKN100
     FM210300 10008KT P6SM SCT030 BKN070
     FM211200 07009KT P6SM SCT050 BKN120
     FM211900 11008KT P6SM VCTS SCT040CB BKN100=



    US Dept of Commerce
    National Oceanic and Atmospheric Administration
    National Weather Service
    1325 East West Highway
    Silver Spring, MD 20910
    Page Author: NWS Internet Services Team
Disclaimer
Information Quality
Credits
Glossary
Privacy Policy
Freedom of Information Act (FOIA)
About Us
Career Opportunities